sensor_id;sensor_type;location;lat;lon;timestamp;P1;durP1;ratioP1;P2;durP2;ratioP2
56171;SDS011;42052;41.634;-0.946;2024-02-21T00:02:19;2.85;;;1.40;;
56171;SDS011;42052;41.634;-0.946;2024-02-21T00:04:45;2.38;;;1.60;;
56171;SDS011;42052;41.634;-0.946;2024-02-21T00:07:11;2.38;;;1.40;;
56171;SDS011;42052;41.634;-0.946;2024-02-21T00:09:37;3.38;;;1.50;;
56171;SDS011;42052;41.634;-0.946;2024-02-21T00:12:03;4.45;;;1.55;;
56171;SDS011;42052;41.634;-0.946;2024-02-21T00:14:30;3.92;;;1.42;;
56171;SDS011;42052;41.634;-0.946;2024-02-21T00:16:56;2.63;;;1.23;;
56171;SDS011;42052;41.634;-0.946;2024-02-21T00:19:22;2.35;;;1.30;;
56171;SDS011;42052;41.634;-0.946;2024-02-21T00:21:48;1.73;;;1.20;;
56171;SDS011;42052;41.634;-0.946;2024-02-21T00:24:13;1.38;;;1.20;;
56171;SDS011;42052;41.634;-0.946;2024-02-21T00:26:39;1.52;;;1.23;;
56171;SDS011;42052;41.634;-0.946;2024-02-21T00:29:05;1.83;;;1.33;;
56171;SDS011;42052;41.634;-0.946;2024-02-21T00:31:31;2.35;;;1.48;;
56171;SDS011;42052;41.634;-0.946;2024-02-21T00:33:57;3.92;;;1.50;;
56171;SDS011;42052;41.634;-0.946;2024-02-21T00:36:24;2.97;;;1.30;;
56171;SDS011;42052;41.634;-0.946;2024-02-21T00:38:50;2.72;;;1.40;;
56171;SDS011;42052;41.634;-0.946;2024-02-21T00:41:15;2.28;;;1.55;;
56171;SDS011;42052;41.634;-0.946;2024-02-21T00:43:41;2.25;;;1.17;;
56171;SDS011;42052;41.634;-0.946;2024-02-21T00:46:07;2.30;;;1.30;;
56171;SDS011;42052;41.634;-0.946;2024-02-21T00:48:34;2.50;;;1.40;;
56171;SDS011;42052;41.634;-0.946;2024-02-21T00:51:00;1.98;;;1.30;;
56171;SDS011;42052;41.634;-0.946;2024-02-21T00:53:26;1.52;;;1.20;;
56171;SDS011;42052;41.634;-0.946;2024-02-21T00:55:52;1.88;;;1.30;;
56171;SDS011;42052;41.634;-0.946;2024-02-21T00:58:18;2.33;;;1.50;;
56171;SDS011;42052;41.634;-0.946;2024-02-21T01:00:43;2.10;;;1.20;;
56171;SDS011;42052;41.634;-0.946;2024-02-21T01:03:09;1.67;;;1.30;;
56171;SDS011;42052;41.634;-0.946;2024-02-21T01:05:35;2.95;;;1.40;;
56171;SDS011;42052;41.634;-0.946;2024-02-21T01:08:01;1.65;;;1.17;;
56171;SDS011;42052;41.634;-0.946;2024-02-21T01:10:30;2.83;;;1.38;;
56171;SDS011;42052;41.634;-0.946;2024-02-21T01:12:56;1.85;;;1.10;;
56171;SDS011;42052;41.634;-0.946;2024-02-21T01:15:21;2.22;;;1.45;;
56171;SDS011;42052;41.634;-0.946;2024-02-21T01:17:47;2.63;;;1.50;;
56171;SDS011;42052;41.634;-0.946;2024-02-21T01:20:15;4.63;;;1.33;;
56171;SDS011;42052;41.634;-0.946;2024-02-21T01:22:40;1.70;;;1.20;;
56171;SDS011;42052;41.634;-0.946;2024-02-21T01:25:06;2.13;;;1.20;;
56171;SDS011;42052;41.634;-0.946;2024-02-21T01:27:33;2.13;;;1.38;;
56171;SDS011;42052;41.634;-0.946;2024-02-21T01:29:59;1.95;;;1.33;;
56171;SDS011;42052;41.634;-0.946;2024-02-21T01:32:25;1.42;;;1.20;;
56171;SDS011;42052;41.634;-0.946;2024-02-21T01:34:51;1.98;;;1.20;;
56171;SDS011;42052;41.634;-0.946;2024-02-21T01:37:17;1.60;;;1.25;;
56171;SDS011;42052;41.634;-0.946;2024-02-21T01:39:43;1.55;;;1.10;;
56171;SDS011;42052;41.634;-0.946;2024-02-21T01:42:09;2.35;;;1.40;;
56171;SDS011;42052;41.634;-0.946;2024-02-21T01:44:34;1.73;;;1.20;;
56171;SDS011;42052;41.634;-0.946;2024-02-21T01:47:01;1.65;;;1.20;;
56171;SDS011;42052;41.634;-0.946;2024-02-21T01:49:28;2.53;;;1.25;;
56171;SDS011;42052;41.634;-0.946;2024-02-21T01:51:54;1.88;;;1.13;;
56171;SDS011;42052;41.634;-0.946;2024-02-21T01:54:20;1.77;;;1.20;;
56171;SDS011;42052;41.634;-0.946;2024-02-21T01:56:47;2.55;;;1.23;;
56171;SDS011;42052;41.634;-0.946;2024-02-21T01:59:13;1.40;;;1.10;;
56171;SDS011;42052;41.634;-0.946;2024-02-21T02:01:41;2.45;;;1.13;;
56171;SDS011;42052;41.634;-0.946;2024-02-21T02:04:08;1.33;;;0.90;;
56171;SDS011;42052;41.634;-0.946;2024-02-21T02:06:34;1.27;;;1.00;;
56171;SDS011;42052;41.634;-0.946;2024-02-21T02:09:00;1.77;;;1.10;;
56171;SDS011;42052;41.634;-0.946;2024-02-21T02:11:26;2.30;;;1.00;;
56171;SDS011;42052;41.634;-0.946;2024-02-21T02:13:52;1.55;;;1.10;;
56171;SDS011;42052;41.634;-0.946;2024-02-21T02:16:18;4.40;;;1.13;;
56171;SDS011;42052;41.634;-0.946;2024-02-21T02:18:43;1.58;;;1.10;;
56171;SDS011;42052;41.634;-0.946;2024-02-21T02:21:45;1.40;;;0.93;;
56171;SDS011;42052;41.634;-0.946;2024-02-21T02:24:06;2.38;;;0.90;;
56171;SDS011;42052;41.634;-0.946;2024-02-21T02:26:32;1.95;;;1.10;;
56171;SDS011;42052;41.634;-0.946;2024-02-21T02:29:01;1.92;;;1.10;;
56171;SDS011;42052;41.634;-0.946;2024-02-21T02:31:27;1.98;;;1.42;;
56171;SDS011;42052;41.634;-0.946;2024-02-21T02:33:53;4.72;;;1.20;;
56171;SDS011;42052;41.634;-0.946;2024-02-21T02:36:19;1.67;;;0.90;;
56171;SDS011;42052;41.634;-0.946;2024-02-21T02:38:45;1.60;;;0.95;;
56171;SDS011;42052;41.634;-0.946;2024-02-21T02:41:11;1.77;;;1.00;;
56171;SDS011;42052;41.634;-0.946;2024-02-21T02:43:37;1.20;;;1.00;;
56171;SDS011;42052;41.634;-0.946;2024-02-21T02:46:03;0.98;;;0.88;;
56171;SDS011;42052;41.634;-0.946;2024-02-21T02:48:29;1.60;;;0.98;;
56171;SDS011;42052;41.634;-0.946;2024-02-21T02:50:55;0.98;;;0.90;;
56171;SDS011;42052;41.634;-0.946;2024-02-21T02:53:21;3.50;;;1.30;;
56171;SDS011;42052;41.634;-0.946;2024-02-21T02:55:47;1.25;;;0.90;;
56171;SDS011;42052;41.634;-0.946;2024-02-21T02:58:13;1.35;;;1.05;;
56171;SDS011;42052;41.634;-0.946;2024-02-21T03:00:39;1.35;;;0.70;;
56171;SDS011;42052;41.634;-0.946;2024-02-21T03:03:04;5.72;;;1.00;;
56171;SDS011;42052;41.634;-0.946;2024-02-21T03:05:30;1.58;;;0.90;;
56171;SDS011;42052;41.634;-0.946;2024-02-21T03:07:56;1.13;;;0.88;;
56171;SDS011;42052;41.634;-0.946;2024-02-21T03:10:22;1.50;;;0.93;;
56171;SDS011;42052;41.634;-0.946;2024-02-21T03:12:48;1.52;;;1.00;;
56171;SDS011;42052;41.634;-0.946;2024-02-21T03:15:14;1.15;;;0.82;;
56171;SDS011;42052;41.634;-0.946;2024-02-21T03:17:42;2.53;;;1.02;;
56171;SDS011;42052;41.634;-0.946;2024-02-21T03:20:09;1.50;;;0.90;;
56171;SDS011;42052;41.634;-0.946;2024-02-21T03:22:35;1.63;;;0.95;;
56171;SDS011;42052;41.634;-0.946;2024-02-21T03:25:02;0.88;;;0.70;;
56171;SDS011;42052;41.634;-0.946;2024-02-21T03:27:28;1.40;;;0.93;;
56171;SDS011;42052;41.634;-0.946;2024-02-21T03:29:54;1.50;;;1.00;;
56171;SDS011;42052;41.634;-0.946;2024-02-21T03:32:20;1.33;;;0.90;;
56171;SDS011;42052;41.634;-0.946;2024-02-21T03:34:45;1.35;;;0.90;;
56171;SDS011;42052;41.634;-0.946;2024-02-21T03:37:11;2.33;;;1.33;;
56171;SDS011;42052;41.634;-0.946;2024-02-21T03:39:39;1.02;;;0.93;;
56171;SDS011;42052;41.634;-0.946;2024-02-21T03:42:05;1.42;;;0.90;;
56171;SDS011;42052;41.634;-0.946;2024-02-21T03:44:32;2.45;;;0.90;;
56171;SDS011;42052;41.634;-0.946;2024-02-21T03:46:59;1.77;;;0.98;;
56171;SDS011;42052;41.634;-0.946;2024-02-21T03:49:25;1.75;;;1.00;;
56171;SDS011;42052;41.634;-0.946;2024-02-21T03:51:51;1.75;;;1.10;;
56171;SDS011;42052;41.634;-0.946;2024-02-21T03:54:17;1.15;;;1.00;;
56171;SDS011;42052;41.634;-0.946;2024-02-21T03:56:43;1.83;;;1.08;;
56171;SDS011;42052;41.634;-0.946;2024-02-21T03:59:09;2.72;;;1.10;;
56171;SDS011;42052;41.634;-0.946;2024-02-21T04:01:36;1.38;;;0.90;;
56171;SDS011;42052;41.634;-0.946;2024-02-21T04:04:02;1.35;;;1.10;;
56171;SDS011;42052;41.634;-0.946;2024-02-21T04:06:28;1.52;;;1.23;;
56171;SDS011;42052;41.634;-0.946;2024-02-21T04:08:54;1.38;;;1.00;;
56171;SDS011;42052;41.634;-0.946;2024-02-21T04:11:20;3.22;;;1.23;;
56171;SDS011;42052;41.634;-0.946;2024-02-21T04:13:50;3.08;;;1.00;;
56171;SDS011;42052;41.634;-0.946;2024-02-21T04:16:17;1.52;;;0.85;;
56171;SDS011;42052;41.634;-0.946;2024-02-21T04:18:43;1.85;;;0.90;;
56171;SDS011;42052;41.634;-0.946;2024-02-21T04:21:09;1.27;;;1.10;;
56171;SDS011;42052;41.634;-0.946;2024-02-21T04:23:35;1.55;;;0.98;;
56171;SDS011;42052;41.634;-0.946;2024-02-21T04:26:01;4.28;;;1.10;;
56171;SDS011;42052;41.634;-0.946;2024-02-21T04:28:27;1.98;;;1.10;;
56171;SDS011;42052;41.634;-0.946;2024-02-21T04:30:53;1.75;;;1.23;;
56171;SDS011;42052;41.634;-0.946;2024-02-21T04:33:19;2.63;;;1.38;;
56171;SDS011;42052;41.634;-0.946;2024-02-21T04:35:45;9.65;;;1.50;;
56171;SDS011;42052;41.634;-0.946;2024-02-21T04:38:10;4.85;;;1.55;;
56171;SDS011;42052;41.634;-0.946;2024-02-21T04:40:36;5.10;;;1.35;;
56171;SDS011;42052;41.634;-0.946;2024-02-21T04:43:02;3.85;;;1.45;;
56171;SDS011;42052;41.634;-0.946;2024-02-21T04:45:28;2.05;;;1.38;;
56171;SDS011;42052;41.634;-0.946;2024-02-21T04:47:54;3.40;;;1.30;;
56171;SDS011;42052;41.634;-0.946;2024-02-21T04:50:20;2.40;;;1.38;;
56171;SDS011;42052;41.634;-0.946;2024-02-21T04:52:46;2.33;;;1.40;;
56171;SDS011;42052;41.634;-0.946;2024-02-21T04:55:12;1.77;;;1.30;;
56171;SDS011;42052;41.634;-0.946;2024-02-21T04:57:38;2.58;;;1.40;;
56171;SDS011;42052;41.634;-0.946;2024-02-21T05:00:04;2.00;;;1.40;;
56171;SDS011;42052;41.634;-0.946;2024-02-21T05:02:31;3.10;;;1.40;;
56171;SDS011;42052;41.634;-0.946;2024-02-21T05:04:57;3.78;;;1.33;;
56171;SDS011;42052;41.634;-0.946;2024-02-21T05:07:23;2.42;;;1.40;;
56171;SDS011;42052;41.634;-0.946;2024-02-21T05:09:49;1.63;;;1.20;;
56171;SDS011;42052;41.634;-0.946;2024-02-21T05:12:15;2.28;;;1.30;;
56171;SDS011;42052;41.634;-0.946;2024-02-21T05:14:41;3.17;;;1.33;;
56171;SDS011;42052;41.634;-0.946;2024-02-21T05:17:07;1.75;;;1.25;;
56171;SDS011;42052;41.634;-0.946;2024-02-21T05:19:32;2.03;;;1.27;;
56171;SDS011;42052;41.634;-0.946;2024-02-21T05:21:58;2.38;;;1.00;;
56171;SDS011;42052;41.634;-0.946;2024-02-21T05:24:27;3.20;;;1.13;;
56171;SDS011;42052;41.634;-0.946;2024-02-21T05:26:54;1.88;;;1.30;;
56171;SDS011;42052;41.634;-0.946;2024-02-21T05:29:20;1.90;;;1.10;;
56171;SDS011;42052;41.634;-0.946;2024-02-21T05:34:18;2.45;;;1.45;;
56171;SDS011;42052;41.634;-0.946;2024-02-21T05:36:45;1.75;;;1.20;;
56171;SDS011;42052;41.634;-0.946;2024-02-21T05:39:11;2.83;;;1.27;;
56171;SDS011;42052;41.634;-0.946;2024-02-21T05:41:37;1.67;;;1.20;;
56171;SDS011;42052;41.634;-0.946;2024-02-21T05:44:03;1.95;;;1.10;;
56171;SDS011;42052;41.634;-0.946;2024-02-21T05:46:29;2.72;;;1.30;;
56171;SDS011;42052;41.634;-0.946;2024-02-21T05:48:55;1.85;;;1.17;;
56171;SDS011;42052;41.634;-0.946;2024-02-21T05:51:21;1.95;;;1.13;;
56171;SDS011;42052;41.634;-0.946;2024-02-21T05:53:46;2.03;;;1.20;;
56171;SDS011;42052;41.634;-0.946;2024-02-21T05:56:13;1.95;;;1.25;;
56171;SDS011;42052;41.634;-0.946;2024-02-21T05:58:39;1.50;;;1.20;;
56171;SDS011;42052;41.634;-0.946;2024-02-21T06:01:06;1.45;;;1.15;;
56171;SDS011;42052;41.634;-0.946;2024-02-21T06:03:33;2.03;;;1.30;;
56171;SDS011;42052;41.634;-0.946;2024-02-21T06:06:02;1.80;;;1.20;;
56171;SDS011;42052;41.634;-0.946;2024-02-21T06:08:30;1.92;;;1.13;;
56171;SDS011;42052;41.634;-0.946;2024-02-21T06:10:56;2.28;;;1.20;;
56171;SDS011;42052;41.634;-0.946;2024-02-21T06:13:22;2.40;;;1.30;;
56171;SDS011;42052;41.634;-0.946;2024-02-21T06:15:49;1.92;;;1.20;;
56171;SDS011;42052;41.634;-0.946;2024-02-21T06:18:16;1.95;;;1.20;;
56171;SDS011;42052;41.634;-0.946;2024-02-21T06:20:43;1.65;;;1.20;;
56171;SDS011;42052;41.634;-0.946;2024-02-21T06:23:09;1.45;;;1.20;;
56171;SDS011;42052;41.634;-0.946;2024-02-21T06:25:36;2.90;;;1.20;;
56171;SDS011;42052;41.634;-0.946;2024-02-21T06:28:02;2.10;;;1.10;;
56171;SDS011;42052;41.634;-0.946;2024-02-21T06:30:28;2.13;;;1.33;;
56171;SDS011;42052;41.634;-0.946;2024-02-21T06:32:54;1.70;;;1.25;;
56171;SDS011;42052;41.634;-0.946;2024-02-21T06:35:21;3.20;;;1.27;;
56171;SDS011;42052;41.634;-0.946;2024-02-21T06:37:49;1.30;;;1.00;;
56171;SDS011;42052;41.634;-0.946;2024-02-21T06:40:20;1.73;;;1.17;;
56171;SDS011;42052;41.634;-0.946;2024-02-21T06:42:47;2.28;;;1.45;;
56171;SDS011;42052;41.634;-0.946;2024-02-21T06:45:13;2.03;;;1.20;;
56171;SDS011;42052;41.634;-0.946;2024-02-21T06:47:39;2.15;;;1.25;;
56171;SDS011;42052;41.634;-0.946;2024-02-21T06:50:05;2.38;;;1.30;;
56171;SDS011;42052;41.634;-0.946;2024-02-21T06:52:31;2.40;;;1.20;;
56171;SDS011;42052;41.634;-0.946;2024-02-21T06:54:57;2.30;;;1.23;;
56171;SDS011;42052;41.634;-0.946;2024-02-21T06:57:23;2.20;;;1.08;;
56171;SDS011;42052;41.634;-0.946;2024-02-21T06:59:49;1.17;;;1.00;;
56171;SDS011;42052;41.634;-0.946;2024-02-21T07:02:15;2.03;;;1.13;;
56171;SDS011;42052;41.634;-0.946;2024-02-21T07:04:40;2.67;;;1.25;;
56171;SDS011;42052;41.634;-0.946;2024-02-21T07:07:06;2.53;;;1.20;;
56171;SDS011;42052;41.634;-0.946;2024-02-21T07:09:32;3.53;;;1.35;;
56171;SDS011;42052;41.634;-0.946;2024-02-21T07:11:59;2.25;;;1.17;;
56171;SDS011;42052;41.634;-0.946;2024-02-21T07:14:25;2.17;;;1.25;;
56171;SDS011;42052;41.634;-0.946;2024-02-21T07:16:52;2.63;;;1.30;;
56171;SDS011;42052;41.634;-0.946;2024-02-21T07:19:19;1.02;;;0.90;;
56171;SDS011;42052;41.634;-0.946;2024-02-21T07:21:45;2.13;;;1.35;;
56171;SDS011;42052;41.634;-0.946;2024-02-21T07:24:11;1.33;;;1.13;;
56171;SDS011;42052;41.634;-0.946;2024-02-21T07:26:40;2.40;;;1.20;;
56171;SDS011;42052;41.634;-0.946;2024-02-21T07:29:09;1.83;;;1.20;;
56171;SDS011;42052;41.634;-0.946;2024-02-21T07:31:41;2.28;;;1.35;;
56171;SDS011;42052;41.634;-0.946;2024-02-21T07:34:08;3.47;;;1.20;;
56171;SDS011;42052;41.634;-0.946;2024-02-21T07:36:34;2.50;;;1.20;;
56171;SDS011;42052;41.634;-0.946;2024-02-21T07:39:00;2.90;;;1.25;;
56171;SDS011;42052;41.634;-0.946;2024-02-21T07:41:26;2.53;;;1.40;;
56171;SDS011;42052;41.634;-0.946;2024-02-21T07:43:56;2.50;;;1.30;;
56171;SDS011;42052;41.634;-0.946;2024-02-21T07:46:22;3.22;;;1.27;;
56171;SDS011;42052;41.634;-0.946;2024-02-21T07:48:48;2.35;;;1.27;;
56171;SDS011;42052;41.634;-0.946;2024-02-21T07:51:14;2.20;;;1.20;;
56171;SDS011;42052;41.634;-0.946;2024-02-21T07:53:43;2.72;;;1.40;;
56171;SDS011;42052;41.634;-0.946;2024-02-21T07:56:12;2.72;;;1.20;;
56171;SDS011;42052;41.634;-0.946;2024-02-21T07:58:39;1.80;;;1.20;;
56171;SDS011;42052;41.634;-0.946;2024-02-21T08:01:08;4.72;;;1.40;;
56171;SDS011;42052;41.634;-0.946;2024-02-21T08:03:35;2.28;;;1.50;;
56171;SDS011;42052;41.634;-0.946;2024-02-21T08:06:01;2.08;;;1.15;;
56171;SDS011;42052;41.634;-0.946;2024-02-21T08:08:28;2.55;;;1.38;;
56171;SDS011;42052;41.634;-0.946;2024-02-21T08:10:54;1.70;;;1.30;;
56171;SDS011;42052;41.634;-0.946;2024-02-21T08:13:19;2.65;;;1.30;;
56171;SDS011;42052;41.634;-0.946;2024-02-21T08:15:46;1.75;;;1.10;;
56171;SDS011;42052;41.634;-0.946;2024-02-21T08:18:11;2.63;;;1.45;;
56171;SDS011;42052;41.634;-0.946;2024-02-21T08:20:37;2.22;;;1.40;;
56171;SDS011;42052;41.634;-0.946;2024-02-21T08:23:03;1.35;;;1.00;;
56171;SDS011;42052;41.634;-0.946;2024-02-21T08:25:29;2.92;;;1.40;;
56171;SDS011;42052;41.634;-0.946;2024-02-21T08:27:57;2.05;;;1.40;;
56171;SDS011;42052;41.634;-0.946;2024-02-21T08:30:24;3.80;;;1.52;;
56171;SDS011;42052;41.634;-0.946;2024-02-21T08:32:50;3.17;;;1.23;;
56171;SDS011;42052;41.634;-0.946;2024-02-21T08:35:15;1.80;;;1.27;;
56171;SDS011;42052;41.634;-0.946;2024-02-21T08:37:44;2.30;;;1.33;;
56171;SDS011;42052;41.634;-0.946;2024-02-21T08:40:13;2.97;;;1.33;;
56171;SDS011;42052;41.634;-0.946;2024-02-21T08:42:42;2.03;;;1.33;;
56171;SDS011;42052;41.634;-0.946;2024-02-21T08:45:09;2.63;;;1.50;;
56171;SDS011;42052;41.634;-0.946;2024-02-21T08:47:35;2.45;;;1.52;;
56171;SDS011;42052;41.634;-0.946;2024-02-21T08:50:03;2.13;;;1.30;;
56171;SDS011;42052;41.634;-0.946;2024-02-21T08:52:31;4.15;;;1.45;;
56171;SDS011;42052;41.634;-0.946;2024-02-21T08:54:57;3.85;;;1.60;;
56171;SDS011;42052;41.634;-0.946;2024-02-21T08:57:23;2.60;;;1.35;;
56171;SDS011;42052;41.634;-0.946;2024-02-21T08:59:48;3.25;;;1.67;;
56171;SDS011;42052;41.634;-0.946;2024-02-21T09:02:14;2.40;;;1.50;;
56171;SDS011;42052;41.634;-0.946;2024-02-21T09:04:41;2.35;;;1.33;;
56171;SDS011;42052;41.634;-0.946;2024-02-21T09:07:07;4.35;;;1.63;;
56171;SDS011;42052;41.634;-0.946;2024-02-21T09:09:33;3.80;;;1.60;;
56171;SDS011;42052;41.634;-0.946;2024-02-21T09:12:00;1.95;;;1.40;;
56171;SDS011;42052;41.634;-0.946;2024-02-21T09:14:33;1.70;;;1.40;;
56171;SDS011;42052;41.634;-0.946;2024-02-21T09:17:06;1.85;;;1.25;;
56171;SDS011;42052;41.634;-0.946;2024-02-21T09:19:32;2.67;;;1.40;;
56171;SDS011;42052;41.634;-0.946;2024-02-21T09:21:58;2.38;;;1.40;;
56171;SDS011;42052;41.634;-0.946;2024-02-21T09:24:26;2.90;;;1.58;;
56171;SDS011;42052;41.634;-0.946;2024-02-21T09:26:52;2.38;;;1.52;;
56171;SDS011;42052;41.634;-0.946;2024-02-21T09:29:18;2.53;;;1.42;;
56171;SDS011;42052;41.634;-0.946;2024-02-21T09:31:44;3.13;;;1.60;;
56171;SDS011;42052;41.634;-0.946;2024-02-21T09:34:10;2.00;;;1.38;;
56171;SDS011;42052;41.634;-0.946;2024-02-21T09:36:36;2.38;;;1.35;;
56171;SDS011;42052;41.634;-0.946;2024-02-21T09:39:03;2.50;;;1.58;;
56171;SDS011;42052;41.634;-0.946;2024-02-21T09:41:29;2.95;;;1.50;;
56171;SDS011;42052;41.634;-0.946;2024-02-21T09:43:55;2.88;;;1.45;;
56171;SDS011;42052;41.634;-0.946;2024-02-21T09:46:37;2.65;;;1.45;;
56171;SDS011;42052;41.634;-0.946;2024-02-21T09:49:30;2.33;;;1.50;;
56171;SDS011;42052;41.634;-0.946;2024-02-21T09:52:04;4.05;;;1.60;;
56171;SDS011;42052;41.634;-0.946;2024-02-21T09:54:32;3.15;;;1.30;;
56171;SDS011;42052;41.634;-0.946;2024-02-21T09:56:59;2.35;;;1.40;;
56171;SDS011;42052;41.634;-0.946;2024-02-21T09:59:32;2.30;;;1.33;;
56171;SDS011;42052;41.634;-0.946;2024-02-21T10:01:58;3.80;;;1.60;;
56171;SDS011;42052;41.634;-0.946;2024-02-21T10:04:28;3.90;;;1.52;;
56171;SDS011;42052;41.634;-0.946;2024-02-21T10:06:54;2.00;;;1.40;;
56171;SDS011;42052;41.634;-0.946;2024-02-21T10:09:21;1.73;;;1.40;;
56171;SDS011;42052;41.634;-0.946;2024-02-21T10:11:48;2.95;;;1.58;;
56171;SDS011;42052;41.634;-0.946;2024-02-21T10:14:15;2.53;;;1.50;;
56171;SDS011;42052;41.634;-0.946;2024-02-21T10:16:41;2.17;;;1.45;;
56171;SDS011;42052;41.634;-0.946;2024-02-21T10:19:15;2.40;;;1.50;;
56171;SDS011;42052;41.634;-0.946;2024-02-21T10:21:42;2.90;;;1.60;;
56171;SDS011;42052;41.634;-0.946;2024-02-21T10:24:08;2.88;;;1.60;;
56171;SDS011;42052;41.634;-0.946;2024-02-21T10:26:35;4.10;;;1.58;;
56171;SDS011;42052;41.634;-0.946;2024-02-21T10:29:02;2.58;;;1.50;;
56171;SDS011;42052;41.634;-0.946;2024-02-21T10:31:28;2.33;;;1.65;;
56171;SDS011;42052;41.634;-0.946;2024-02-21T10:33:57;3.92;;;1.60;;
56171;SDS011;42052;41.634;-0.946;2024-02-21T10:36:24;2.22;;;1.50;;
56171;SDS011;42052;41.634;-0.946;2024-02-21T10:38:51;1.92;;;1.30;;
56171;SDS011;42052;41.634;-0.946;2024-02-21T10:41:19;2.63;;;1.50;;
56171;SDS011;42052;41.634;-0.946;2024-02-21T10:43:50;2.85;;;1.52;;
56171;SDS011;42052;41.634;-0.946;2024-02-21T10:48:45;2.95;;;1.70;;
56171;SDS011;42052;41.634;-0.946;2024-02-21T10:56:30;2.88;;;1.75;;
56171;SDS011;42052;41.634;-0.946;2024-02-21T10:59:01;3.65;;;1.67;;
56171;SDS011;42052;41.634;-0.946;2024-02-21T11:01:30;2.45;;;1.70;;
56171;SDS011;42052;41.634;-0.946;2024-02-21T11:04:10;3.10;;;1.50;;
56171;SDS011;42052;41.634;-0.946;2024-02-21T11:06:38;3.50;;;1.42;;
56171;SDS011;42052;41.634;-0.946;2024-02-21T11:09:09;1.92;;;1.50;;
56171;SDS011;42052;41.634;-0.946;2024-02-21T11:11:37;2.33;;;1.55;;
56171;SDS011;42052;41.634;-0.946;2024-02-21T11:14:05;4.80;;;1.88;;
56171;SDS011;42052;41.634;-0.946;2024-02-21T11:16:35;3.05;;;1.58;;
56171;SDS011;42052;41.634;-0.946;2024-02-21T11:19:05;3.15;;;1.50;;
56171;SDS011;42052;41.634;-0.946;2024-02-21T11:21:36;2.67;;;1.50;;
56171;SDS011;42052;41.634;-0.946;2024-02-21T11:24:03;2.38;;;1.58;;
56171;SDS011;42052;41.634;-0.946;2024-02-21T11:26:30;4.28;;;1.92;;
56171;SDS011;42052;41.634;-0.946;2024-02-21T11:28:58;5.10;;;1.60;;
56171;SDS011;42052;41.634;-0.946;2024-02-21T11:31:25;2.92;;;1.60;;
56171;SDS011;42052;41.634;-0.946;2024-02-21T11:33:54;4.05;;;1.85;;
56171;SDS011;42052;41.634;-0.946;2024-02-21T11:36:23;5.00;;;1.65;;
56171;SDS011;42052;41.634;-0.946;2024-02-21T11:38:52;3.08;;;1.80;;
56171;SDS011;42052;41.634;-0.946;2024-02-21T11:41:19;5.20;;;1.77;;
56171;SDS011;42052;41.634;-0.946;2024-02-21T11:43:50;4.03;;;1.98;;
56171;SDS011;42052;41.634;-0.946;2024-02-21T11:46:16;4.75;;;1.90;;
56171;SDS011;42052;41.634;-0.946;2024-02-21T11:48:42;3.50;;;1.63;;
56171;SDS011;42052;41.634;-0.946;2024-02-21T11:51:20;4.35;;;1.65;;
56171;SDS011;42052;41.634;-0.946;2024-02-21T11:53:48;2.63;;;1.65;;
56171;SDS011;42052;41.634;-0.946;2024-02-21T11:56:14;7.95;;;1.90;;
56171;SDS011;42052;41.634;-0.946;2024-02-21T11:58:39;3.35;;;1.75;;
56171;SDS011;42052;41.634;-0.946;2024-02-21T12:01:05;3.75;;;1.70;;
56171;SDS011;42052;41.634;-0.946;2024-02-21T12:03:32;4.00;;;2.00;;
56171;SDS011;42052;41.634;-0.946;2024-02-21T12:06:00;4.75;;;1.95;;
56171;SDS011;42052;41.634;-0.946;2024-02-21T12:08:41;4.30;;;1.98;;
56171;SDS011;42052;41.634;-0.946;2024-02-21T12:11:16;3.53;;;1.85;;
56171;SDS011;42052;41.634;-0.946;2024-02-21T12:14:00;3.75;;;1.85;;
56171;SDS011;42052;41.634;-0.946;2024-02-21T12:16:30;2.65;;;1.58;;
56171;SDS011;42052;41.634;-0.946;2024-02-21T12:18:58;3.42;;;1.90;;
56171;SDS011;42052;41.634;-0.946;2024-02-21T12:21:25;4.38;;;1.90;;
56171;SDS011;42052;41.634;-0.946;2024-02-21T12:23:56;6.07;;;1.90;;
56171;SDS011;42052;41.634;-0.946;2024-02-21T12:26:22;5.45;;;1.90;;
56171;SDS011;42052;41.634;-0.946;2024-02-21T12:28:48;4.35;;;1.80;;
56171;SDS011;42052;41.634;-0.946;2024-02-21T12:31:14;5.78;;;1.98;;
56171;SDS011;42052;41.634;-0.946;2024-02-21T12:33:41;4.60;;;1.98;;
56171;SDS011;42052;41.634;-0.946;2024-02-21T12:36:07;7.43;;;1.98;;
56171;SDS011;42052;41.634;-0.946;2024-02-21T12:38:34;4.57;;;2.05;;
56171;SDS011;42052;41.634;-0.946;2024-02-21T12:41:00;4.47;;;1.98;;
56171;SDS011;42052;41.634;-0.946;2024-02-21T12:43:27;4.07;;;1.88;;
56171;SDS011;42052;41.634;-0.946;2024-02-21T12:45:53;3.00;;;2.00;;
56171;SDS011;42052;41.634;-0.946;2024-02-21T12:48:18;5.75;;;2.08;;
56171;SDS011;42052;41.634;-0.946;2024-02-21T12:50:48;6.38;;;2.28;;
56171;SDS011;42052;41.634;-0.946;2024-02-21T12:53:18;6.40;;;2.40;;
56171;SDS011;42052;41.634;-0.946;2024-02-21T12:55:49;5.55;;;2.10;;
56171;SDS011;42052;41.634;-0.946;2024-02-21T12:58:16;3.17;;;2.00;;
56171;SDS011;42052;41.634;-0.946;2024-02-21T13:00:42;3.60;;;2.03;;
56171;SDS011;42052;41.634;-0.946;2024-02-21T13:03:08;4.32;;;2.00;;
56171;SDS011;42052;41.634;-0.946;2024-02-21T13:05:37;4.72;;;2.30;;
56171;SDS011;42052;41.634;-0.946;2024-02-21T13:08:05;3.60;;;1.90;;
56171;SDS011;42052;41.634;-0.946;2024-02-21T13:10:31;3.65;;;2.08;;
56171;SDS011;42052;41.634;-0.946;2024-02-21T13:12:59;5.28;;;2.30;;
56171;SDS011;42052;41.634;-0.946;2024-02-21T13:15:28;7.70;;;2.47;;
56171;SDS011;42052;41.634;-0.946;2024-02-21T13:17:55;5.40;;;2.28;;
56171;SDS011;42052;41.634;-0.946;2024-02-21T13:20:22;4.85;;;2.22;;
56171;SDS011;42052;41.634;-0.946;2024-02-21T13:22:48;3.53;;;2.08;;
56171;SDS011;42052;41.634;-0.946;2024-02-21T13:25:14;4.13;;;2.10;;
56171;SDS011;42052;41.634;-0.946;2024-02-21T13:27:43;3.78;;;2.13;;
56171;SDS011;42052;41.634;-0.946;2024-02-21T13:30:09;6.25;;;2.33;;
56171;SDS011;42052;41.634;-0.946;2024-02-21T13:32:36;5.57;;;2.13;;
56171;SDS011;42052;41.634;-0.946;2024-02-21T13:35:02;7.47;;;2.20;;
56171;SDS011;42052;41.634;-0.946;2024-02-21T13:37:28;5.60;;;2.38;;
56171;SDS011;42052;41.634;-0.946;2024-02-21T13:39:54;5.25;;;2.40;;
56171;SDS011;42052;41.634;-0.946;2024-02-21T13:42:21;4.57;;;2.30;;
56171;SDS011;42052;41.634;-0.946;2024-02-21T13:44:47;4.78;;;2.33;;
56171;SDS011;42052;41.634;-0.946;2024-02-21T13:47:13;2.53;;;1.90;;
56171;SDS011;42052;41.634;-0.946;2024-02-21T13:49:40;6.07;;;2.10;;
56171;SDS011;42052;41.634;-0.946;2024-02-21T13:52:06;2.53;;;2.10;;
56171;SDS011;42052;41.634;-0.946;2024-02-21T13:54:32;4.57;;;2.50;;
56171;SDS011;42052;41.634;-0.946;2024-02-21T13:56:58;4.25;;;2.10;;
56171;SDS011;42052;41.634;-0.946;2024-02-21T13:59:24;5.55;;;2.63;;
56171;SDS011;42052;41.634;-0.946;2024-02-21T14:01:51;4.70;;;2.40;;
56171;SDS011;42052;41.634;-0.946;2024-02-21T14:04:17;3.78;;;2.38;;
56171;SDS011;42052;41.634;-0.946;2024-02-21T14:06:43;4.10;;;2.70;;
56171;SDS011;42052;41.634;-0.946;2024-02-21T14:09:09;4.10;;;2.22;;
56171;SDS011;42052;41.634;-0.946;2024-02-21T14:11:36;3.95;;;2.60;;
56171;SDS011;42052;41.634;-0.946;2024-02-21T14:14:03;4.40;;;2.70;;
56171;SDS011;42052;41.634;-0.946;2024-02-21T14:16:30;5.53;;;2.83;;
56171;SDS011;42052;41.634;-0.946;2024-02-21T14:18:55;3.95;;;2.50;;
56171;SDS011;42052;41.634;-0.946;2024-02-21T14:21:21;4.55;;;2.60;;
56171;SDS011;42052;41.634;-0.946;2024-02-21T14:23:47;6.10;;;2.95;;
56171;SDS011;42052;41.634;-0.946;2024-02-21T14:26:13;5.10;;;2.60;;
56171;SDS011;42052;41.634;-0.946;2024-02-21T14:28:40;6.43;;;2.80;;
56171;SDS011;42052;41.634;-0.946;2024-02-21T14:31:06;4.68;;;2.88;;
56171;SDS011;42052;41.634;-0.946;2024-02-21T14:33:37;4.97;;;2.90;;
56171;SDS011;42052;41.634;-0.946;2024-02-21T14:36:03;4.25;;;2.80;;
56171;SDS011;42052;41.634;-0.946;2024-02-21T14:38:29;5.40;;;2.75;;
56171;SDS011;42052;41.634;-0.946;2024-02-21T14:40:55;5.20;;;2.50;;
56171;SDS011;42052;41.634;-0.946;2024-02-21T14:43:21;4.80;;;2.72;;